createdAt,value
2023-04-15T00:00:16.416Z,5.86
2023-04-15T00:01:16.992Z,5.87
2023-04-15T00:02:16.707Z,5.86
2023-04-15T00:03:16.524Z,5.85
2023-04-15T00:04:16.656Z,5.86
2023-04-15T00:05:16.556Z,5.86
2023-04-15T00:06:17.098Z,5.87
2023-04-15T00:07:16.656Z,5.86
2023-04-15T00:08:17.179Z,5.85
2023-04-15T00:09:16.727Z,5.82
2023-04-15T00:10:16.354Z,5.83
2023-04-15T00:11:16.909Z,5.82
2023-04-15T00:12:16.533Z,5.83
2023-04-15T00:13:17.086Z,5.82
2023-04-15T00:14:16.651Z,5.79
2023-04-15T00:15:17.209Z,5.77
2023-04-15T00:16:16.758Z,5.80
2023-04-15T00:17:16.404Z,5.82
2023-04-15T00:18:16.947Z,5.85
2023-04-15T00:19:16.483Z,5.86
2023-04-15T00:20:17.047Z,5.83
2023-04-15T00:21:16.594Z,5.86
2023-04-15T00:22:16.939Z,5.85
2023-04-15T00:23:16.521Z,5.89
2023-04-15T00:24:17.064Z,5.89
2023-04-15T00:25:16.637Z,5.89
2023-04-15T00:26:17.193Z,5.89
2023-04-15T00:27:16.742Z,5.93
2023-04-15T00:28:17.293Z,5.90
2023-04-15T00:29:16.855Z,5.90
2023-04-15T00:30:16.409Z,5.89
2023-04-15T00:31:17.022Z,5.87
2023-04-15T00:32:16.864Z,5.92
2023-04-15T00:33:16.398Z,5.92
2023-04-15T00:34:17.016Z,5.92
2023-04-15T00:35:16.594Z,5.96
2023-04-15T00:36:17.192Z,5.97
2023-04-15T00:37:16.761Z,5.97
2023-04-15T00:38:17.305Z,6.00
2023-04-15T00:39:16.896Z,6.00
2023-04-15T00:40:16.429Z,5.97
2023-04-15T00:41:16.980Z,5.97
2023-04-15T00:42:16.649Z,5.94
2023-04-15T00:43:17.206Z,5.98
2023-04-15T00:44:16.752Z,5.94
2023-04-15T00:45:17.348Z,5.96
2023-04-15T00:46:16.914Z,5.94
2023-04-15T00:47:16.586Z,5.94
2023-04-15T00:48:17.128Z,5.94
2023-04-15T00:49:16.682Z,5.97
2023-04-15T00:50:17.209Z,5.96
2023-04-15T00:51:16.735Z,5.96
2023-04-15T00:52:16.514Z,5.94
2023-04-15T00:53:17.047Z,5.96
2023-04-15T00:54:16.605Z,5.98
2023-04-15T00:55:17.157Z,5.97
2023-04-15T00:56:16.720Z,6.03
2023-04-15T00:57:17.305Z,6.01
2023-04-15T00:58:16.861Z,6.04
2023-04-15T00:59:16.407Z,6.05
2023-04-15T01:00:16.973Z,6.03
2023-04-15T01:01:16.546Z,6.03
2023-04-15T01:02:17.050Z,6.05
2023-04-15T01:03:16.831Z,6.07
2023-04-15T01:04:16.712Z,6.04
2023-04-15T01:05:16.491Z,6.04
2023-04-15T01:06:17.050Z,6.05
2023-04-15T01:07:16.598Z,6.08
2023-04-15T01:08:17.150Z,6.10
2023-04-15T01:09:16.742Z,6.08
2023-04-15T01:10:17.291Z,6.10
2023-04-15T01:11:16.833Z,6.12
2023-04-15T01:12:16.874Z,6.10
2023-04-15T01:13:16.415Z,6.12
2023-04-15T01:14:16.951Z,6.12
2023-04-15T01:15:16.478Z,6.10
2023-04-15T01:16:17.045Z,6.08
2023-04-15T01:17:16.650Z,6.08
2023-04-15T01:18:17.176Z,6.10
2023-04-15T01:19:16.765Z,6.04
2023-04-15T01:20:16.355Z,6.05
2023-04-15T01:21:16.936Z,6.04
2023-04-15T01:22:16.708Z,6.07
2023-04-15T01:23:17.278Z,6.08
2023-04-15T01:24:16.850Z,6.04
2023-04-15T01:25:16.405Z,6.07
2023-04-15T01:26:16.976Z,6.11
2023-04-15T01:27:16.575Z,6.11
2023-04-15T01:28:17.128Z,6.03
2023-04-15T01:29:16.667Z,6.00
2023-04-15T01:30:17.231Z,6.03
2023-04-15T01:31:16.834Z,6.04
2023-04-15T01:32:16.682Z,6.05
2023-04-15T01:33:17.200Z,6.08
2023-04-15T01:34:16.750Z,6.07
2023-04-15T01:35:17.318Z,6.08
2023-04-15T01:36:16.882Z,6.05
2023-04-15T01:37:16.446Z,6.08
2023-04-15T01:38:17.001Z,6.04
2023-04-15T01:39:16.597Z,6.05
2023-04-15T01:40:17.155Z,6.05
2023-04-15T01:41:16.698Z,6.05
2023-04-15T01:42:16.698Z,6.04
2023-04-15T01:43:17.271Z,6.04
2023-04-15T01:44:16.832Z,6.04
2023-04-15T01:45:16.400Z,6.07
2023-04-15T01:46:16.954Z,6.05
2023-04-15T01:47:16.539Z,6.05
2023-04-15T01:48:17.116Z,6.07
2023-04-15T01:49:16.666Z,6.07
2023-04-15T01:50:17.265Z,6.07
2023-04-15T01:51:16.850Z,6.08
2023-04-15T01:52:17.106Z,6.08
2023-04-15T01:53:16.660Z,6.08
2023-04-15T01:54:17.247Z,6.07
2023-04-15T01:55:16.804Z,6.05
2023-04-15T01:56:16.950Z,6.08
2023-04-15T01:57:16.634Z,6.05
2023-04-15T01:58:17.206Z,6.10
2023-04-15T01:59:16.755Z,6.07
2023-04-15T02:00:17.290Z,6.07
2023-04-15T02:01:16.845Z,6.10
2023-04-15T02:02:16.691Z,6.07
2023-04-15T02:03:17.353Z,6.05
2023-04-15T02:04:17.104Z,6.05
2023-04-15T02:05:16.664Z,6.07
2023-04-15T02:06:17.253Z,6.05
2023-04-15T02:07:16.822Z,6.05
2023-04-15T02:08:16.377Z,6.04
2023-04-15T02:09:16.909Z,6.07
2023-04-15T02:10:16.487Z,6.07
2023-04-15T02:11:17.028Z,6.08
2023-04-15T02:12:17.127Z,6.07
2023-04-15T02:13:16.672Z,6.07
2023-04-15T02:14:17.264Z,6.07
2023-04-15T02:15:16.789Z,6.07
2023-04-15T02:16:16.376Z,6.08
2023-04-15T02:17:17.061Z,6.08
2023-04-15T02:18:16.776Z,6.10
2023-04-15T02:19:16.420Z,6.08
2023-04-15T02:20:17.024Z,6.08
2023-04-15T02:21:16.576Z,6.08
2023-04-15T02:22:16.594Z,6.07
2023-04-15T02:23:17.158Z,6.05
2023-04-15T02:24:16.694Z,6.05
2023-04-15T02:25:17.334Z,6.07
2023-04-15T02:26:16.883Z,6.04
2023-04-15T02:27:16.436Z,6.04
2023-04-15T02:28:16.965Z,6.05
2023-04-15T02:29:16.511Z,6.04
2023-04-15T02:30:17.054Z,6.04
2023-04-15T02:31:16.617Z,6.05
2023-04-15T02:32:16.870Z,6.03
2023-04-15T02:33:16.452Z,6.03
2023-04-15T02:34:17.025Z,6.03
2023-04-15T02:35:16.586Z,6.03
2023-04-15T02:36:17.151Z,6.00
2023-04-15T02:37:16.716Z,6.03
2023-04-15T02:38:17.280Z,6.00
2023-04-15T02:39:16.864Z,6.03
2023-04-15T02:40:16.498Z,6.04
2023-04-15T02:41:17.020Z,6.03
2023-04-15T02:42:16.885Z,6.03
2023-04-15T02:43:16.404Z,6.03
2023-04-15T02:44:16.945Z,6.03
2023-04-15T02:45:16.485Z,6.04
2023-04-15T02:46:17.075Z,6.05
2023-04-15T02:47:16.741Z,6.05
2023-04-15T02:48:17.296Z,6.04
2023-04-15T02:49:16.857Z,6.07
2023-04-15T02:50:16.605Z,6.07
2023-04-15T02:51:17.152Z,6.04
2023-04-15T02:52:16.918Z,6.08
2023-04-15T02:53:16.447Z,6.04
2023-04-15T02:54:16.961Z,6.08
2023-04-15T02:55:16.530Z,6.11
2023-04-15T02:56:17.130Z,6.07
2023-04-15T02:57:16.993Z,6.10
2023-04-15T02:58:16.530Z,6.08
2023-04-15T02:59:17.078Z,6.10
2023-04-15T03:00:16.677Z,6.10
2023-04-15T03:01:17.260Z,6.11
2023-04-15T03:02:17.162Z,6.10
2023-04-15T03:03:17.065Z,6.11
2023-04-15T03:04:17.001Z,6.05
2023-04-15T03:05:16.939Z,6.07
2023-04-15T03:06:16.500Z,6.11
2023-04-15T03:07:17.044Z,6.11
2023-04-15T03:08:16.639Z,6.10
2023-04-15T03:09:17.179Z,6.10
2023-04-15T03:10:16.730Z,6.10
2023-04-15T03:11:16.379Z,6.10
2023-04-15T03:12:17.276Z,6.05
2023-04-15T03:13:16.837Z,6.07
2023-04-15T03:14:16.391Z,6.10
2023-04-15T03:15:16.947Z,6.10
2023-04-15T03:16:16.585Z,6.08
2023-04-15T03:17:17.301Z,6.08
2023-04-15T03:18:16.844Z,6.11
2023-04-15T03:19:16.397Z,6.14
2023-04-15T03:20:17.068Z,6.14
2023-04-15T03:21:16.839Z,6.18
2023-04-15T03:22:16.819Z,6.17
2023-04-15T03:23:16.363Z,6.17
2023-04-15T03:24:16.916Z,6.18
2023-04-15T03:25:16.478Z,6.15
2023-04-15T03:26:17.018Z,6.18
2023-04-15T03:27:16.578Z,6.17
2023-04-15T03:28:17.166Z,6.21
2023-04-15T03:29:16.756Z,6.18
2023-04-15T03:30:17.322Z,6.14
2023-04-15T03:31:16.908Z,6.11
2023-04-15T03:32:16.847Z,6.14
2023-04-15T03:33:16.395Z,6.18
2023-04-15T03:34:16.972Z,6.20
2023-04-15T03:35:16.542Z,6.21
2023-04-15T03:36:17.075Z,6.20
2023-04-15T03:37:16.648Z,6.18
2023-04-15T03:38:17.206Z,6.20
2023-04-15T03:39:16.784Z,6.21
2023-04-15T03:40:16.325Z,6.20
2023-04-15T03:41:16.921Z,6.20
2023-04-15T03:42:16.880Z,6.20
2023-04-15T03:43:16.429Z,6.17
2023-04-15T03:44:17.019Z,6.14
2023-04-15T03:45:16.615Z,6.11
2023-04-15T03:46:17.148Z,6.11
2023-04-15T03:47:16.703Z,6.07
2023-04-15T03:48:18.235Z,6.04
2023-04-15T03:49:17.056Z,6.07
2023-04-15T03:50:16.615Z,6.07
2023-04-15T03:51:17.163Z,6.08
2023-04-15T03:52:17.395Z,6.10
2023-04-15T03:53:16.950Z,6.12
2023-04-15T03:54:16.525Z,6.11
2023-04-15T03:55:17.135Z,6.11
2023-04-15T03:56:16.690Z,6.08
2023-04-15T03:57:17.252Z,6.10
2023-04-15T03:58:16.813Z,6.11
2023-04-15T03:59:16.373Z,6.11
2023-04-15T04:00:16.916Z,6.12
2023-04-15T04:01:16.480Z,6.11
2023-04-15T04:02:16.443Z,6.15
2023-04-15T04:03:17.314Z,6.12
2023-04-15T04:04:17.280Z,6.17
2023-04-15T04:05:16.990Z,6.18
2023-04-15T04:06:16.575Z,6.20
2023-04-15T04:07:17.133Z,6.21
2023-04-15T04:08:16.700Z,6.20
2023-04-15T04:09:17.275Z,6.18
2023-04-15T04:10:16.832Z,6.20
2023-04-15T04:11:16.380Z,6.18
2023-04-15T04:12:16.990Z,6.20
2023-04-15T04:13:16.544Z,6.21
2023-04-15T04:14:17.073Z,6.22
2023-04-15T04:15:16.627Z,6.21
2023-04-15T04:16:17.311Z,6.18
2023-04-15T04:17:17.138Z,6.18
2023-04-15T04:18:16.833Z,6.18
2023-04-15T04:19:16.409Z,6.18
2023-04-15T04:20:17.000Z,6.21
2023-04-15T04:21:16.580Z,6.20
2023-04-15T04:22:17.194Z,6.21
2023-04-15T04:23:16.797Z,6.21
2023-04-15T04:24:16.349Z,6.22
2023-04-15T04:25:16.891Z,6.21
2023-04-15T04:26:16.452Z,6.22
2023-04-15T04:27:17.039Z,6.25
2023-04-15T04:28:16.570Z,6.22
2023-04-15T04:29:17.109Z,6.26
2023-04-15T04:30:16.646Z,6.25
2023-04-15T04:31:17.206Z,6.24
2023-04-15T04:32:17.056Z,6.26
2023-04-15T04:33:16.698Z,6.26
2023-04-15T04:34:17.228Z,6.29
2023-04-15T04:35:16.820Z,6.31
2023-04-15T04:36:16.394Z,6.31
2023-04-15T04:37:16.960Z,6.31
2023-04-15T04:38:16.547Z,6.29
2023-04-15T04:39:17.101Z,6.29
2023-04-15T04:40:16.651Z,6.29
2023-04-15T04:41:17.245Z,6.31
2023-04-15T04:42:16.746Z,6.32
2023-04-15T04:43:17.314Z,6.29
2023-04-15T04:44:16.853Z,6.33
2023-04-15T04:45:16.396Z,6.32
2023-04-15T04:46:16.948Z,6.32
2023-04-15T04:47:16.710Z,6.33
2023-04-15T04:48:17.301Z,6.33
2023-04-15T04:49:16.864Z,6.33
2023-04-15T04:50:16.429Z,6.32
2023-04-15T04:51:16.996Z,6.35
2023-04-15T04:52:16.649Z,6.32
2023-04-15T04:53:17.206Z,6.29
2023-04-15T04:54:16.772Z,6.32
2023-04-15T04:55:16.310Z,6.35
2023-04-15T04:56:16.819Z,6.32
2023-04-15T04:57:16.378Z,6.38
2023-04-15T04:58:16.918Z,6.35
2023-04-15T04:59:16.938Z,6.38
2023-04-15T05:00:16.726Z,6.38
2023-04-15T05:01:17.297Z,6.38
2023-04-15T05:02:16.634Z,6.38
2023-04-15T05:03:16.591Z,6.38
2023-04-15T05:04:16.736Z,6.39
2023-04-15T05:05:16.475Z,6.40
2023-04-15T05:06:17.080Z,6.40
2023-04-15T05:07:16.620Z,6.40
2023-04-15T05:08:17.193Z,6.42
2023-04-15T05:09:16.774Z,6.42
2023-04-15T05:10:16.358Z,6.43
2023-04-15T05:11:16.930Z,6.42
2023-04-15T05:12:16.952Z,6.43
2023-04-15T05:13:16.488Z,6.46
2023-04-15T05:14:17.079Z,6.45
2023-04-15T05:15:16.617Z,6.48
2023-04-15T05:16:17.263Z,6.48
2023-04-15T05:17:17.048Z,6.46
2023-04-15T05:18:16.593Z,6.49
2023-04-15T05:19:17.141Z,6.49
2023-04-15T05:20:16.702Z,6.50
2023-04-15T05:21:17.297Z,6.52
2023-04-15T05:22:16.703Z,6.53
2023-04-15T05:23:17.243Z,6.53
2023-04-15T05:24:16.780Z,6.57
2023-04-15T05:25:16.332Z,6.63
2023-04-15T05:26:16.947Z,6.63
2023-04-15T05:27:16.475Z,6.70
2023-04-15T05:28:17.000Z,6.70
2023-04-15T05:29:16.581Z,6.72
2023-04-15T05:30:17.142Z,6.72
2023-04-15T05:31:16.770Z,6.76
2023-04-15T05:32:16.883Z,6.74
2023-04-15T05:33:16.435Z,6.74
2023-04-15T05:34:17.005Z,6.74
2023-04-15T05:35:16.559Z,6.79
2023-04-15T05:36:17.133Z,6.77
2023-04-15T05:37:16.700Z,6.74
2023-04-15T05:38:17.299Z,6.77
2023-04-15T05:39:16.855Z,6.79
2023-04-15T05:40:16.415Z,6.82
2023-04-15T05:41:19.157Z,6.83
2023-04-15T05:42:16.716Z,6.83
2023-04-15T05:43:17.324Z,6.82
2023-04-15T05:44:16.862Z,6.86
2023-04-15T05:45:16.492Z,6.90
2023-04-15T05:46:17.103Z,6.90
2023-04-15T05:47:16.707Z,6.95
2023-04-15T05:48:16.347Z,6.95
2023-04-15T05:49:16.910Z,6.95
2023-04-15T05:50:16.483Z,6.95
2023-04-15T05:51:17.023Z,6.97
2023-04-15T05:52:16.830Z,6.97
2023-04-15T05:53:16.376Z,6.98
2023-04-15T05:54:17.726Z,6.98
2023-04-15T05:55:16.611Z,7.02
2023-04-15T05:56:17.138Z,6.97
2023-04-15T05:57:16.690Z,6.93
2023-04-15T05:58:17.276Z,6.95
2023-04-15T05:59:16.841Z,6.97
2023-04-15T06:00:16.392Z,7.04
2023-04-15T06:01:16.945Z,7.05
2023-04-15T06:02:17.213Z,7.04
2023-04-15T06:03:17.066Z,7.07
2023-04-15T06:04:16.818Z,7.10
2023-04-15T06:05:16.469Z,7.19
2023-04-15T06:06:16.997Z,7.21
2023-04-15T06:07:16.520Z,7.16
2023-04-15T06:08:17.078Z,7.18
2023-04-15T06:09:16.658Z,7.15
2023-04-15T06:10:17.237Z,7.19
2023-04-15T06:11:16.788Z,7.26
2023-04-15T06:12:17.054Z,7.28
2023-04-15T06:13:16.644Z,7.26
2023-04-15T06:14:17.219Z,7.23
2023-04-15T06:15:16.777Z,7.30
2023-04-15T06:16:16.306Z,7.35
2023-04-15T06:17:16.954Z,7.40
2023-04-15T06:18:16.499Z,7.43
2023-04-15T06:19:17.060Z,7.47
2023-04-15T06:20:16.620Z,7.39
2023-04-15T06:21:17.152Z,7.38
2023-04-15T06:22:17.220Z,7.39
2023-04-15T06:23:16.776Z,7.40
2023-04-15T06:24:16.336Z,7.42
2023-04-15T06:25:16.882Z,7.42
2023-04-15T06:26:16.460Z,7.40
2023-04-15T06:27:17.078Z,7.38
2023-04-15T06:28:16.688Z,7.35
2023-04-15T06:29:17.247Z,7.38
2023-04-15T06:30:16.802Z,7.39
2023-04-15T06:31:16.374Z,7.45
2023-04-15T06:32:16.318Z,7.45
2023-04-15T06:33:16.865Z,7.51
2023-04-15T06:34:16.411Z,7.56
2023-04-15T06:35:16.971Z,7.53
2023-04-15T06:36:16.553Z,7.49
2023-04-15T06:37:17.120Z,7.46
2023-04-15T06:38:16.710Z,7.47
2023-04-15T06:39:17.290Z,7.51
2023-04-15T06:40:16.858Z,7.45
2023-04-15T06:41:16.422Z,7.54
2023-04-15T06:42:17.166Z,7.57
2023-04-15T06:43:16.699Z,7.61
2023-04-15T06:44:17.224Z,7.63
2023-04-15T06:45:16.766Z,7.54
2023-04-15T06:46:17.350Z,7.57
2023-04-15T06:47:17.169Z,7.57
2023-04-15T06:48:16.755Z,7.58
2023-04-15T06:49:17.302Z,7.61
2023-04-15T06:50:16.864Z,7.61
2023-04-15T06:51:16.413Z,7.68
2023-04-15T06:52:17.174Z,7.73
2023-04-15T06:53:16.740Z,7.77
2023-04-15T06:54:17.332Z,7.83
2023-04-15T06:55:16.892Z,7.87
2023-04-15T06:56:16.439Z,7.90
2023-04-15T06:57:17.005Z,7.91
2023-04-15T06:58:16.555Z,7.97
2023-04-15T06:59:17.106Z,8.02
2023-04-15T07:00:16.668Z,8.06
2023-04-15T07:01:17.277Z,8.09
2023-04-15T07:02:16.977Z,8.09
2023-04-15T07:03:16.745Z,8.11
2023-04-15T07:04:16.411Z,7.98
2023-04-15T07:05:17.093Z,7.98
2023-04-15T07:06:16.669Z,8.01
2023-04-15T07:07:17.272Z,7.94
2023-04-15T07:08:16.832Z,8.04
2023-04-15T07:09:16.394Z,8.13
2023-04-15T07:10:16.936Z,8.13
2023-04-15T07:11:16.508Z,8.15
2023-04-15T07:12:16.504Z,8.18
2023-04-15T07:13:17.099Z,8.20
2023-04-15T07:14:16.671Z,8.22
2023-04-15T07:15:17.206Z,8.23
2023-04-15T07:16:16.769Z,8.22
2023-04-15T07:17:16.470Z,8.20
2023-04-15T07:18:17.073Z,8.19
2023-04-15T07:19:16.634Z,8.19
2023-04-15T07:20:17.203Z,8.19
2023-04-15T07:21:16.769Z,8.22
2023-04-15T07:22:16.735Z,8.23
2023-04-15T07:23:17.251Z,8.23
2023-04-15T07:24:16.796Z,8.22
2023-04-15T07:25:16.328Z,8.19
2023-04-15T07:26:16.876Z,8.29
2023-04-15T07:27:16.415Z,8.37
2023-04-15T07:28:16.961Z,8.36
2023-04-15T07:29:16.530Z,8.36
2023-04-15T07:30:17.093Z,8.28
2023-04-15T07:31:16.708Z,8.30
2023-04-15T07:32:16.837Z,8.32
2023-04-15T07:33:16.418Z,8.40
2023-04-15T07:34:16.981Z,8.41
2023-04-15T07:35:16.591Z,8.40
2023-04-15T07:36:17.182Z,8.40
2023-04-15T07:37:16.753Z,8.37
2023-04-15T07:38:17.272Z,8.32
2023-04-15T07:39:16.825Z,8.32
2023-04-15T07:40:16.373Z,8.36
2023-04-15T07:41:16.900Z,8.41
2023-04-15T07:42:16.499Z,8.44
2023-04-15T07:43:17.037Z,8.47
2023-04-15T07:44:16.703Z,8.44
2023-04-15T07:45:16.355Z,8.44
2023-04-15T07:46:16.976Z,8.53
2023-04-15T07:47:16.613Z,8.53
2023-04-15T07:48:17.164Z,8.50
2023-04-15T07:49:16.756Z,8.50
2023-04-15T07:50:17.291Z,8.54
2023-04-15T07:51:16.846Z,8.58
2023-04-15T07:52:16.981Z,8.54
2023-04-15T07:53:16.503Z,8.54
2023-04-15T07:54:17.069Z,8.58
2023-04-15T07:55:16.604Z,8.57
2023-04-15T07:56:17.124Z,8.61
2023-04-15T07:57:16.689Z,8.68
2023-04-15T07:58:17.256Z,8.61
2023-04-15T07:59:16.808Z,8.54
2023-04-15T08:00:16.361Z,8.53
2023-04-15T08:01:17.025Z,8.53
2023-04-15T08:02:16.921Z,8.51
2023-04-15T08:03:16.827Z,8.57
2023-04-15T08:04:16.596Z,8.57
2023-04-15T08:05:16.501Z,8.63
2023-04-15T08:06:17.275Z,8.64
2023-04-15T08:07:16.823Z,8.58
2023-04-15T08:08:16.364Z,8.47
2023-04-15T08:09:16.911Z,8.37
2023-04-15T08:10:16.491Z,8.30
2023-04-15T08:11:17.078Z,8.26
2023-04-15T08:12:16.918Z,8.26
2023-04-15T08:13:16.478Z,8.23
2023-04-15T08:14:17.021Z,8.22
2023-04-15T08:15:16.570Z,8.16
2023-04-15T08:16:17.229Z,8.15
2023-04-15T08:17:16.829Z,8.13
2023-04-15T08:18:16.431Z,8.13
2023-04-15T08:19:16.956Z,8.09
2023-04-15T08:20:16.500Z,8.11
2023-04-15T08:21:17.031Z,8.11
2023-04-15T08:22:17.991Z,8.06
2023-04-15T08:23:16.451Z,8.08
2023-04-15T08:24:16.973Z,8.12
2023-04-15T08:25:16.534Z,8.11
2023-04-15T08:26:17.093Z,8.04
2023-04-15T08:27:16.668Z,8.04
2023-04-15T08:28:17.305Z,8.02
2023-04-15T08:29:16.914Z,8.05
2023-04-15T08:30:16.465Z,8.09
2023-04-15T08:31:17.062Z,8.13
2023-04-15T08:32:17.040Z,8.11
2023-04-15T08:33:16.662Z,7.92
2023-04-15T08:34:17.239Z,7.91
2023-04-15T08:35:16.808Z,7.97
2023-04-15T08:36:16.375Z,7.95
2023-04-15T08:37:16.950Z,8.00
2023-04-15T08:38:16.521Z,7.97
2023-04-15T08:39:17.112Z,7.95
2023-04-15T08:40:16.664Z,7.88
2023-04-15T08:41:17.267Z,7.92
2023-04-15T08:42:17.291Z,8.00
2023-04-15T08:43:16.854Z,8.04
2023-04-15T08:44:16.443Z,8.02
2023-04-15T08:45:17.013Z,7.97
2023-04-15T08:46:16.587Z,7.92
2023-04-15T08:47:17.235Z,7.84
2023-04-15T08:48:16.803Z,7.87
2023-04-15T08:49:16.354Z,7.92
2023-04-15T08:50:16.911Z,7.98
2023-04-15T08:51:16.433Z,8.04
2023-04-15T08:52:17.129Z,8.06
2023-04-15T08:53:16.683Z,8.11
2023-04-15T08:54:17.272Z,8.11
2023-04-15T08:55:16.843Z,8.00
2023-04-15T08:56:16.414Z,7.95
2023-04-15T08:57:17.288Z,8.01
2023-04-15T08:58:16.833Z,8.06
2023-04-15T08:59:16.452Z,8.01
2023-04-15T09:00:17.023Z,8.05
2023-04-15T09:01:16.664Z,8.05
2023-04-15T09:02:16.999Z,8.02
2023-04-15T09:03:16.768Z,8.04
2023-04-15T09:04:16.520Z,7.98
2023-04-15T09:05:17.280Z,7.95
2023-04-15T09:06:16.830Z,7.97
2023-04-15T09:07:16.381Z,7.95
2023-04-15T09:08:16.989Z,7.90
2023-04-15T09:09:16.626Z,7.87
2023-04-15T09:10:17.239Z,7.88
2023-04-15T09:11:17.833Z,7.85
2023-04-15T09:12:16.511Z,7.77
2023-04-15T09:13:17.047Z,7.76
2023-04-15T09:14:16.575Z,7.76
2023-04-15T09:15:17.131Z,7.74
2023-04-15T09:16:16.694Z,7.73
2023-04-15T09:17:17.390Z,7.64
2023-04-15T09:18:16.969Z,7.61
2023-04-15T09:19:16.514Z,7.58
2023-04-15T09:20:17.113Z,7.58
2023-04-15T09:21:16.722Z,7.60
2023-04-15T09:22:17.334Z,7.68
2023-04-15T09:23:16.928Z,7.77
2023-04-15T09:24:16.482Z,7.77
2023-04-15T09:25:17.031Z,7.84
2023-04-15T09:26:16.579Z,7.90
2023-04-15T09:27:17.092Z,7.94
2023-04-15T09:28:16.647Z,8.01
2023-04-15T09:29:17.256Z,8.04
2023-04-15T09:30:16.878Z,8.12
2023-04-15T09:31:16.639Z,8.06
2023-04-15T09:32:17.169Z,8.04
2023-04-15T09:33:16.709Z,8.13
2023-04-15T09:34:17.289Z,8.12
2023-04-15T09:35:16.843Z,8.11
2023-04-15T09:36:16.433Z,8.04
2023-04-15T09:37:28.911Z,8.02
2023-04-15T09:38:17.006Z,8.06
2023-04-15T09:39:16.548Z,8.02
2023-04-15T09:40:17.173Z,8.09
2023-04-15T09:41:16.802Z,8.12
2023-04-15T09:42:17.195Z,8.01
2023-04-15T09:43:16.876Z,7.98
2023-04-15T09:44:16.441Z,7.95
2023-04-15T09:45:17.001Z,7.92
2023-04-15T09:46:16.564Z,8.00
2023-04-15T09:47:17.230Z,8.04
2023-04-15T09:48:16.839Z,8.01
2023-04-15T09:49:16.545Z,8.01
2023-04-15T09:50:17.161Z,8.04
2023-04-15T09:51:16.709Z,8.02
2023-04-15T09:52:16.419Z,8.00
2023-04-15T09:53:16.936Z,8.00
2023-04-15T09:54:16.488Z,8.06
2023-04-15T09:55:17.035Z,7.98
2023-04-15T09:56:16.621Z,7.97
2023-04-15T09:57:17.297Z,8.04
2023-04-15T09:58:16.869Z,8.04
2023-04-15T09:59:16.433Z,8.00
2023-04-15T10:00:16.984Z,8.00
2023-04-15T10:01:16.607Z,8.08
2023-04-15T10:02:17.233Z,8.13
2023-04-15T10:03:17.027Z,8.13
2023-04-15T10:04:17.062Z,8.15
2023-04-15T10:05:16.937Z,7.97
2023-04-15T10:06:16.517Z,7.88
2023-04-15T10:07:17.067Z,7.90
2023-04-15T10:08:16.605Z,7.88
2023-04-15T10:09:17.163Z,7.84
2023-04-15T10:10:16.753Z,7.84
2023-04-15T10:11:16.343Z,7.84
2023-04-15T10:12:17.245Z,7.85
2023-04-15T10:13:16.814Z,7.74
2023-04-15T10:14:16.399Z,7.78
2023-04-15T10:15:16.951Z,7.87
2023-04-15T10:16:16.548Z,7.98
2023-04-15T10:17:17.285Z,7.97
2023-04-15T10:18:16.832Z,8.02
2023-04-15T10:19:16.368Z,7.97
2023-04-15T10:20:16.931Z,7.95
2023-04-15T10:21:16.488Z,7.88
2023-04-15T10:22:16.484Z,7.91
2023-04-15T10:23:17.069Z,7.87
2023-04-15T10:24:16.603Z,7.92
2023-04-15T10:25:17.161Z,8.00
2023-04-15T10:26:16.738Z,8.02
2023-04-15T10:27:17.320Z,8.02
2023-04-15T10:28:16.857Z,8.05
2023-04-15T10:29:16.418Z,8.06
2023-04-15T10:30:17.026Z,8.09
2023-04-15T10:31:16.640Z,8.16
2023-04-15T10:32:17.155Z,8.16
2023-04-15T10:33:16.687Z,8.19
2023-04-15T10:34:17.268Z,8.22
2023-04-15T10:35:16.811Z,8.23
2023-04-15T10:36:16.341Z,8.26
2023-04-15T10:37:16.885Z,8.29
2023-04-15T10:38:16.517Z,8.29
2023-04-15T10:39:17.097Z,8.32
2023-04-15T10:40:16.689Z,8.35
2023-04-15T10:41:18.684Z,8.41
2023-04-15T10:42:17.056Z,8.36
2023-04-15T10:43:16.640Z,8.37
2023-04-15T10:44:17.202Z,8.36
2023-04-15T10:45:16.732Z,8.30
2023-04-15T10:46:17.298Z,8.40
2023-04-15T10:47:16.862Z,8.40
2023-04-15T10:48:16.444Z,8.51
2023-04-15T10:49:17.053Z,8.58
2023-04-15T10:50:16.724Z,8.63
2023-04-15T10:51:17.249Z,8.75
2023-04-15T10:52:16.385Z,8.72
2023-04-15T10:53:16.934Z,8.75
2023-04-15T10:54:16.515Z,8.81
2023-04-15T10:55:17.092Z,8.85
2023-04-15T10:56:16.692Z,8.84
2023-04-15T10:57:17.286Z,8.95
2023-04-15T10:58:16.855Z,8.96
2023-04-15T10:59:16.424Z,8.90
2023-04-15T11:00:16.992Z,8.95
2023-04-15T11:01:16.548Z,9.03
2023-04-15T11:02:16.515Z,8.92
2023-04-15T11:03:17.367Z,8.85
2023-04-15T11:04:17.215Z,8.79
2023-04-15T11:05:16.883Z,8.72
2023-04-15T11:06:16.455Z,8.68
2023-04-15T11:07:17.030Z,8.76
2023-04-15T11:08:16.619Z,8.87
2023-04-15T11:09:17.185Z,8.84
2023-04-15T11:10:16.752Z,8.82
2023-04-15T11:11:17.348Z,8.72
2023-04-15T11:12:17.144Z,8.61
2023-04-15T11:13:16.729Z,8.64
2023-04-15T11:14:16.383Z,8.57
2023-04-15T11:15:16.921Z,8.51
2023-04-15T11:16:16.495Z,8.56
2023-04-15T11:17:17.067Z,8.67
2023-04-15T11:18:16.653Z,8.68
2023-04-15T11:19:17.272Z,8.72
2023-04-15T11:20:16.841Z,8.78
2023-04-15T11:21:16.405Z,8.72
2023-04-15T11:22:17.299Z,8.54
2023-04-15T11:23:16.903Z,8.48
2023-04-15T11:24:16.486Z,8.61
2023-04-15T11:25:17.069Z,8.74
2023-04-15T11:26:16.756Z,8.76
2023-04-15T11:27:16.342Z,8.79
2023-04-15T11:28:16.907Z,8.99
2023-04-15T11:29:16.442Z,8.96
2023-04-15T11:30:16.985Z,9.03
2023-04-15T11:31:16.560Z,9.09
2023-04-15T11:32:16.415Z,9.25
2023-04-15T11:33:17.289Z,9.33
2023-04-15T11:34:16.868Z,9.37
2023-04-15T11:35:16.429Z,9.44
2023-04-15T11:36:17.233Z,9.41
2023-04-15T11:37:16.832Z,9.48
2023-04-15T11:38:16.379Z,9.59
2023-04-15T11:39:16.966Z,9.61
2023-04-15T11:40:16.492Z,9.72
2023-04-15T11:41:17.048Z,9.81
2023-04-15T11:42:16.724Z,9.59
2023-04-15T11:43:17.240Z,9.54
2023-04-15T11:44:16.751Z,9.65
2023-04-15T11:45:17.292Z,9.58
2023-04-15T11:46:16.991Z,9.61
2023-04-15T11:47:16.806Z,9.46
2023-04-15T11:48:16.377Z,9.36
2023-04-15T11:49:16.946Z,9.37
2023-04-15T11:50:16.528Z,9.38
2023-04-15T11:51:17.124Z,9.29
2023-04-15T11:52:17.334Z,9.22
2023-04-15T11:53:16.887Z,9.16
2023-04-15T11:54:16.432Z,9.19
2023-04-15T11:55:17.027Z,9.09
2023-04-15T11:56:16.552Z,9.13
2023-04-15T11:57:17.075Z,9.13
2023-04-15T11:58:16.694Z,9.12
2023-04-15T11:59:17.269Z,9.12
2023-04-15T12:00:16.823Z,9.15
2023-04-15T12:01:16.381Z,9.15
2023-04-15T12:02:16.978Z,9.16
2023-04-15T12:03:16.911Z,9.26
2023-04-15T12:04:17.316Z,9.27
2023-04-15T12:05:16.449Z,9.26
2023-04-15T12:06:17.408Z,9.29
2023-04-15T12:07:17.054Z,9.36
2023-04-15T12:08:16.648Z,9.40
2023-04-15T12:09:17.215Z,9.38
2023-04-15T12:10:16.779Z,9.36
2023-04-15T12:11:16.326Z,9.41
2023-04-15T12:12:17.292Z,9.33
2023-04-15T12:13:16.838Z,9.31
2023-04-15T12:14:16.442Z,9.25
2023-04-15T12:15:17.018Z,9.25
2023-04-15T12:16:16.744Z,9.23
2023-04-15T12:17:16.484Z,9.31
2023-04-15T12:18:17.043Z,9.37
2023-04-15T12:19:16.728Z,9.38
2023-04-15T12:20:17.008Z,9.29
2023-04-15T12:21:16.594Z,9.22
2023-04-15T12:22:16.605Z,9.18
2023-04-15T12:23:17.167Z,9.25
2023-04-15T12:24:16.724Z,9.25
2023-04-15T12:25:17.305Z,9.25
2023-04-15T12:26:16.867Z,9.31
2023-04-15T12:27:16.431Z,9.36
2023-04-15T12:28:16.984Z,9.43
2023-04-15T12:29:16.553Z,9.46
2023-04-15T12:30:17.122Z,9.50
2023-04-15T12:31:16.689Z,9.50
2023-04-15T12:32:16.985Z,9.51
2023-04-15T12:33:16.742Z,9.48
2023-04-15T12:34:17.313Z,9.51
2023-04-15T12:35:16.872Z,9.55
2023-04-15T12:36:16.440Z,9.64
2023-04-15T12:37:17.004Z,9.80
2023-04-15T12:38:16.588Z,9.82
2023-04-15T12:39:17.148Z,9.66
2023-04-15T12:40:16.691Z,9.74
2023-04-15T12:41:17.275Z,9.78
2023-04-15T12:42:16.441Z,9.81
2023-04-15T12:43:16.986Z,9.81
2023-04-15T12:44:16.555Z,9.75
2023-04-15T12:45:17.132Z,9.84
2023-04-15T12:46:16.738Z,9.89
2023-04-15T12:47:16.398Z,9.88
2023-04-15T12:48:17.096Z,9.85
2023-04-15T12:49:16.868Z,9.91
2023-04-15T12:50:16.407Z,9.82
2023-04-15T12:51:16.950Z,9.81
2023-04-15T12:52:16.870Z,9.75
2023-04-15T12:53:16.379Z,9.74
2023-04-15T12:54:16.933Z,9.76
2023-04-15T12:55:16.498Z,9.76
2023-04-15T12:56:17.113Z,9.84
2023-04-15T12:57:16.742Z,9.82
2023-04-15T12:58:17.288Z,9.81
2023-04-15T12:59:16.830Z,9.89
2023-04-15T13:00:16.363Z,9.91
2023-04-15T13:01:16.942Z,9.91
2023-04-15T13:02:16.933Z,9.98
2023-04-15T13:03:16.786Z,10.05
2023-04-15T13:04:16.679Z,9.95
2023-04-15T13:05:16.430Z,9.86
2023-04-15T13:06:16.967Z,9.84
2023-04-15T13:07:16.512Z,9.89
2023-04-15T13:08:17.070Z,9.93
2023-04-15T13:09:16.669Z,10.02
2023-04-15T13:10:17.277Z,10.08
2023-04-15T13:11:16.817Z,10.10
2023-04-15T13:12:16.646Z,10.10
2023-04-15T13:13:17.212Z,10.16
2023-04-15T13:14:16.784Z,10.05
2023-04-15T13:15:16.354Z,10.03
2023-04-15T13:16:16.938Z,10.06
2023-04-15T13:17:16.624Z,10.03
2023-04-15T13:18:17.164Z,10.02